Arvada, CO (80005)

10:55 PM MDT on October 25, 2014 (GMT -0600)
The Hills At Standley Lake | Change Station
CLOSE
Current Station
Personal Weather Station
Location: Arvada, CO
Elevation: 5659 ft
Nearby Weather Stations

Elev 5659 ft 39.85 °N, 105.14 °W | Updated 4 minutes ago

Clear
Clear
54.7 °F
Feels Like 54.7 °F
N
0.0
Wind Variable Wind from SE

Today
High -- | Low -- °F
--% Chance of Precip.
Yesterday
High -- | Low -- °F
Precip. -- in
7:21 AM 6:06 PM
Waxing Crescent, 6% visible
Pressure 30.04 in
Visibility 30.0 miles
Clouds Clear
Dew Point 26 °F
Humidity 33%
Rainfall 0.00 in
Snow Depth Not available.
UV 0 out of 12
Pollen 2.90 out of 12
PM2.5 Good
Flu Activity Sporadic
METAR KBJC 260348Z 30006KT 30SM SKC 18/M06 A3004 RMK LAST

More Conditions Fewer Conditions

Pressure 30.04 in
Visibility 30.0 miles
Clouds Clear
Dew Point 26 °F
Humidity 33%
Rainfall 0.00 in
Snow Depth Not available.
UV 0 out of 12
Pollen 2.90 out of 12
PM2.5 Good
Flu Activity Sporadic
METAR KBJC 260348Z 30006KT 30SM SKC 18/M06 A3004 RMK LAST

More Conditions Fewer Conditions

10-Day Weather Forecast

Almanac

Astronomy

Oct. 25, 2014 Rise Set
Actual Time 7:21 AM MDT 6:06 PM MDT
Civil Twilight 6:53 AM MDT 6:34 PM MDT
Nautical Twilight 6:22 AM MDT 7:06 PM MDT
Astronomical Twilight 5:50 AM MDT 7:37 PM MDT
Moon 9:02 AM MDT (10/25) 7:32 PM MDT (10/25)
Length of Visible Light 11h 40m
Length of Day
10h 45m
Tomorrow will be 2m 25s shorter.
Waxing Crescent, 6% of the Moon is Illuminated
Oct 26
Waxing Crescent
Oct 30
First Quarter
Nov 6
Full
Nov 14
Last Quarter
Nov 22
New

Yesterday's Extremes

State Highs State Lows

Community

WunderPhotos

Upload Photos

1,765,111 photos uploaded!

Nearby

Air Quality

  Air Quality AQ Index Pollutant
Yesterday Good
PM10
Yesterday Good
OZONE
Current Good
PM2.5
Saturday Good
OZONE
Saturday Good
PM2.5
Sunday Good
OZONE
Sunday Good
PM2.5
Monday Good
OZONE
Monday Good
PM2.5

Snow Depth

Station Depth Elevation
Lake Eldora 1 in 9700 ft
Niwot 0 in 9910 ft
University Camp 0 in 10300 ft
Echo Lake 0 in 10600 ft
Copeland Lake 0 in 8600 ft

Earthquake Activity

City Distance Mag. Time & Date
No recent earthquake activity has been reported nearby.
Minimum magnitude displayed is 2.5.

Coastal Water Temperatures

Place Temperature
No Stations Reporting

Nearby Weather Stations